sensor_id;sensor_type;location;lat;lon;timestamp;P1;durP1;ratioP1;P2;durP2;ratioP2
64686;SDS011;51113;53.646;-113.674;2023-04-03T00:01:27;11.30;;;7.28;;
64686;SDS011;51113;53.646;-113.674;2023-04-03T00:03:56;5.32;;;2.05;;
64686;SDS011;51113;53.646;-113.674;2023-04-03T00:06:24;3.67;;;1.38;;
64686;SDS011;51113;53.646;-113.674;2023-04-03T00:08:53;1.45;;;1.08;;
64686;SDS011;51113;53.646;-113.674;2023-04-03T00:11:22;1.70;;;1.10;;
64686;SDS011;51113;53.646;-113.674;2023-04-03T00:13:53;1.73;;;1.10;;
64686;SDS011;51113;53.646;-113.674;2023-04-03T00:16:25;1.70;;;1.15;;
64686;SDS011;51113;53.646;-113.674;2023-04-03T00:18:53;2.35;;;1.20;;
64686;SDS011;51113;53.646;-113.674;2023-04-03T00:21:22;1.10;;;0.98;;
64686;SDS011;51113;53.646;-113.674;2023-04-03T00:23:51;1.10;;;1.00;;
64686;SDS011;51113;53.646;-113.674;2023-04-03T00:26:19;1.52;;;0.90;;
64686;SDS011;51113;53.646;-113.674;2023-04-03T00:28:48;2.28;;;1.00;;
64686;SDS011;51113;53.646;-113.674;2023-04-03T00:31:17;1.52;;;0.90;;
64686;SDS011;51113;53.646;-113.674;2023-04-03T00:33:46;1.77;;;1.33;;
64686;SDS011;51113;53.646;-113.674;2023-04-03T00:36:14;1.10;;;1.00;;
64686;SDS011;51113;53.646;-113.674;2023-04-03T00:38:43;1.35;;;1.10;;
64686;SDS011;51113;53.646;-113.674;2023-04-03T00:41:12;2.05;;;1.40;;
64686;SDS011;51113;53.646;-113.674;2023-04-03T00:43:41;3.78;;;2.22;;
64686;SDS011;51113;53.646;-113.674;2023-04-03T00:46:09;6.63;;;3.15;;
64686;SDS011;51113;53.646;-113.674;2023-04-03T00:48:44;8.90;;;3.83;;
64686;SDS011;51113;53.646;-113.674;2023-04-03T00:51:22;7.38;;;3.38;;
64686;SDS011;51113;53.646;-113.674;2023-04-03T00:53:54;6.03;;;3.30;;
64686;SDS011;51113;53.646;-113.674;2023-04-03T00:56:25;6.72;;;3.33;;
64686;SDS011;51113;53.646;-113.674;2023-04-03T00:59:04;10.35;;;3.67;;
64686;SDS011;51113;53.646;-113.674;2023-04-03T01:01:34;7.90;;;3.92;;
64686;SDS011;51113;53.646;-113.674;2023-04-03T01:04:03;6.78;;;4.20;;
64686;SDS011;51113;53.646;-113.674;2023-04-03T01:06:35;8.45;;;4.40;;
64686;SDS011;51113;53.646;-113.674;2023-04-03T01:09:05;9.85;;;4.70;;
64686;SDS011;51113;53.646;-113.674;2023-04-03T01:11:33;13.10;;;4.60;;
64686;SDS011;51113;53.646;-113.674;2023-04-03T01:14:03;9.52;;;5.20;;
64686;SDS011;51113;53.646;-113.674;2023-04-03T01:16:33;11.45;;;4.47;;
64686;SDS011;51113;53.646;-113.674;2023-04-03T01:19:02;12.95;;;4.22;;
64686;SDS011;51113;53.646;-113.674;2023-04-03T01:24:23;5.07;;;2.80;;
64686;SDS011;51113;53.646;-113.674;2023-04-03T01:26:57;7.95;;;2.90;;
64686;SDS011;51113;53.646;-113.674;2023-04-03T01:29:26;5.75;;;2.35;;
64686;SDS011;51113;53.646;-113.674;2023-04-03T01:31:56;5.47;;;2.25;;
64686;SDS011;51113;53.646;-113.674;2023-04-03T01:34:26;3.38;;;2.05;;
64686;SDS011;51113;53.646;-113.674;2023-04-03T01:36:55;3.20;;;1.95;;
64686;SDS011;51113;53.646;-113.674;2023-04-03T01:39:24;2.58;;;1.90;;
64686;SDS011;51113;53.646;-113.674;2023-04-03T01:41:52;7.05;;;2.45;;
64686;SDS011;51113;53.646;-113.674;2023-04-03T01:44:21;5.75;;;2.30;;
64686;SDS011;51113;53.646;-113.674;2023-04-03T01:46:50;6.60;;;2.42;;
64686;SDS011;51113;53.646;-113.674;2023-04-03T01:49:18;7.55;;;2.30;;
64686;SDS011;51113;53.646;-113.674;2023-04-03T01:51:47;3.72;;;2.20;;
64686;SDS011;51113;53.646;-113.674;2023-04-03T01:54:14;3.72;;;2.63;;
64686;SDS011;51113;53.646;-113.674;2023-04-03T01:56:43;3.25;;;2.28;;
64686;SDS011;51113;53.646;-113.674;2023-04-03T01:59:12;3.40;;;2.30;;
64686;SDS011;51113;53.646;-113.674;2023-04-03T02:01:40;7.38;;;2.67;;
64686;SDS011;51113;53.646;-113.674;2023-04-03T02:04:09;4.03;;;2.45;;
64686;SDS011;51113;53.646;-113.674;2023-04-03T02:06:38;5.07;;;2.38;;
64686;SDS011;51113;53.646;-113.674;2023-04-03T02:09:07;3.47;;;2.35;;
64686;SDS011;51113;53.646;-113.674;2023-04-03T02:11:36;3.72;;;2.20;;
64686;SDS011;51113;53.646;-113.674;2023-04-03T02:14:04;2.85;;;2.10;;
64686;SDS011;51113;53.646;-113.674;2023-04-03T02:16:33;3.95;;;2.30;;
64686;SDS011;51113;53.646;-113.674;2023-04-03T02:19:02;3.97;;;2.33;;
64686;SDS011;51113;53.646;-113.674;2023-04-03T02:21:31;6.40;;;2.00;;
64686;SDS011;51113;53.646;-113.674;2023-04-03T02:23:59;6.10;;;2.50;;
64686;SDS011;51113;53.646;-113.674;2023-04-03T02:26:28;8.00;;;2.80;;
64686;SDS011;51113;53.646;-113.674;2023-04-03T02:28:56;5.10;;;2.50;;
64686;SDS011;51113;53.646;-113.674;2023-04-03T02:31:25;4.75;;;2.53;;
64686;SDS011;51113;53.646;-113.674;2023-04-03T02:33:54;4.22;;;2.58;;
64686;SDS011;51113;53.646;-113.674;2023-04-03T02:36:22;11.73;;;3.35;;
64686;SDS011;51113;53.646;-113.674;2023-04-03T02:38:51;6.15;;;2.92;;
64686;SDS011;51113;53.646;-113.674;2023-04-03T02:41:20;4.00;;;2.40;;
64686;SDS011;51113;53.646;-113.674;2023-04-03T02:43:48;4.32;;;2.38;;
64686;SDS011;51113;53.646;-113.674;2023-04-03T02:46:17;7.35;;;2.80;;
64686;SDS011;51113;53.646;-113.674;2023-04-03T02:48:46;6.00;;;2.25;;
64686;SDS011;51113;53.646;-113.674;2023-04-03T02:51:14;4.47;;;2.38;;
64686;SDS011;51113;53.646;-113.674;2023-04-03T02:53:43;5.60;;;2.80;;
64686;SDS011;51113;53.646;-113.674;2023-04-03T02:56:11;3.70;;;2.38;;
64686;SDS011;51113;53.646;-113.674;2023-04-03T02:58:40;6.30;;;2.85;;
64686;SDS011;51113;53.646;-113.674;2023-04-03T03:01:09;5.78;;;2.80;;
64686;SDS011;51113;53.646;-113.674;2023-04-03T03:03:38;4.15;;;2.25;;
64686;SDS011;51113;53.646;-113.674;2023-04-03T03:06:08;4.03;;;2.83;;
64686;SDS011;51113;53.646;-113.674;2023-04-03T03:08:38;4.10;;;2.65;;
64686;SDS011;51113;53.646;-113.674;2023-04-03T03:11:08;3.42;;;2.75;;
64686;SDS011;51113;53.646;-113.674;2023-04-03T03:13:37;3.65;;;2.60;;
64686;SDS011;51113;53.646;-113.674;2023-04-03T03:16:06;5.53;;;2.55;;
64686;SDS011;51113;53.646;-113.674;2023-04-03T03:18:35;8.40;;;2.92;;
64686;SDS011;51113;53.646;-113.674;2023-04-03T03:21:04;4.55;;;2.90;;
64686;SDS011;51113;53.646;-113.674;2023-04-03T03:23:32;7.10;;;3.22;;
64686;SDS011;51113;53.646;-113.674;2023-04-03T03:26:05;5.68;;;2.92;;
64686;SDS011;51113;53.646;-113.674;2023-04-03T03:28:35;4.03;;;2.97;;
64686;SDS011;51113;53.646;-113.674;2023-04-03T03:31:05;6.22;;;2.92;;
64686;SDS011;51113;53.646;-113.674;2023-04-03T03:33:34;7.18;;;2.78;;
64686;SDS011;51113;53.646;-113.674;2023-04-03T03:36:02;4.43;;;2.80;;
64686;SDS011;51113;53.646;-113.674;2023-04-03T03:38:32;4.95;;;2.95;;
64686;SDS011;51113;53.646;-113.674;2023-04-03T03:41:00;5.95;;;3.15;;
64686;SDS011;51113;53.646;-113.674;2023-04-03T03:43:29;6.45;;;3.08;;
64686;SDS011;51113;53.646;-113.674;2023-04-03T03:45:58;4.80;;;3.28;;
64686;SDS011;51113;53.646;-113.674;2023-04-03T03:48:26;5.53;;;3.47;;
64686;SDS011;51113;53.646;-113.674;2023-04-03T03:50:55;4.75;;;2.92;;
64686;SDS011;51113;53.646;-113.674;2023-04-03T03:53:24;4.55;;;3.22;;
64686;SDS011;51113;53.646;-113.674;2023-04-03T03:55:53;7.15;;;3.40;;
64686;SDS011;51113;53.646;-113.674;2023-04-03T03:58:22;9.15;;;3.33;;
64686;SDS011;51113;53.646;-113.674;2023-04-03T04:00:50;6.93;;;3.15;;
64686;SDS011;51113;53.646;-113.674;2023-04-03T04:03:19;4.75;;;3.20;;
64686;SDS011;51113;53.646;-113.674;2023-04-03T04:05:48;10.52;;;3.17;;
64686;SDS011;51113;53.646;-113.674;2023-04-03T04:08:17;4.20;;;3.00;;
64686;SDS011;51113;53.646;-113.674;2023-04-03T04:10:46;4.80;;;3.28;;
64686;SDS011;51113;53.646;-113.674;2023-04-03T04:13:15;9.70;;;4.65;;
64686;SDS011;51113;53.646;-113.674;2023-04-03T04:15:43;6.03;;;3.38;;
64686;SDS011;51113;53.646;-113.674;2023-04-03T04:18:12;7.47;;;3.53;;
64686;SDS011;51113;53.646;-113.674;2023-04-03T04:20:41;6.43;;;3.75;;
64686;SDS011;51113;53.646;-113.674;2023-04-03T04:23:10;8.40;;;3.80;;
64686;SDS011;51113;53.646;-113.674;2023-04-03T04:25:38;6.90;;;3.97;;
64686;SDS011;51113;53.646;-113.674;2023-04-03T04:28:07;9.18;;;4.00;;
64686;SDS011;51113;53.646;-113.674;2023-04-03T04:30:36;8.82;;;4.13;;
64686;SDS011;51113;53.646;-113.674;2023-04-03T04:33:05;8.13;;;3.58;;
64686;SDS011;51113;53.646;-113.674;2023-04-03T04:35:34;6.65;;;3.90;;
64686;SDS011;51113;53.646;-113.674;2023-04-03T04:38:04;6.25;;;3.80;;
64686;SDS011;51113;53.646;-113.674;2023-04-03T04:40:32;6.65;;;3.92;;
64686;SDS011;51113;53.646;-113.674;2023-04-03T04:43:01;5.45;;;3.17;;
64686;SDS011;51113;53.646;-113.674;2023-04-03T04:45:29;6.68;;;3.88;;
64686;SDS011;51113;53.646;-113.674;2023-04-03T04:47:58;6.72;;;3.70;;
64686;SDS011;51113;53.646;-113.674;2023-04-03T04:50:27;5.85;;;3.75;;
64686;SDS011;51113;53.646;-113.674;2023-04-03T04:52:55;6.45;;;3.83;;
64686;SDS011;51113;53.646;-113.674;2023-04-03T04:55:24;7.47;;;3.70;;
64686;SDS011;51113;53.646;-113.674;2023-04-03T04:57:52;8.80;;;3.50;;
64686;SDS011;51113;53.646;-113.674;2023-04-03T05:00:21;5.88;;;3.65;;
64686;SDS011;51113;53.646;-113.674;2023-04-03T05:02:50;9.68;;;4.30;;
64686;SDS011;51113;53.646;-113.674;2023-04-03T05:05:18;6.95;;;4.13;;
64686;SDS011;51113;53.646;-113.674;2023-04-03T05:07:47;8.32;;;4.30;;
64686;SDS011;51113;53.646;-113.674;2023-04-03T05:10:16;9.80;;;4.63;;
64686;SDS011;51113;53.646;-113.674;2023-04-03T05:12:45;10.52;;;4.78;;
64686;SDS011;51113;53.646;-113.674;2023-04-03T05:15:14;9.55;;;4.93;;
64686;SDS011;51113;53.646;-113.674;2023-04-03T05:17:43;9.00;;;5.50;;
64686;SDS011;51113;53.646;-113.674;2023-04-03T05:20:12;15.82;;;5.82;;
64686;SDS011;51113;53.646;-113.674;2023-04-03T05:22:40;8.02;;;5.50;;
64686;SDS011;51113;53.646;-113.674;2023-04-03T05:25:09;11.70;;;6.32;;
64686;SDS011;51113;53.646;-113.674;2023-04-03T05:27:38;12.80;;;5.60;;
64686;SDS011;51113;53.646;-113.674;2023-04-03T05:30:07;11.18;;;5.22;;
64686;SDS011;51113;53.646;-113.674;2023-04-03T05:32:36;10.68;;;6.35;;
64686;SDS011;51113;53.646;-113.674;2023-04-03T05:35:04;11.63;;;6.20;;
64686;SDS011;51113;53.646;-113.674;2023-04-03T05:37:34;11.75;;;6.28;;
64686;SDS011;51113;53.646;-113.674;2023-04-03T05:40:04;12.15;;;6.90;;
64686;SDS011;51113;53.646;-113.674;2023-04-03T05:42:33;18.85;;;7.45;;
64686;SDS011;51113;53.646;-113.674;2023-04-03T05:45:02;11.10;;;6.07;;
64686;SDS011;51113;53.646;-113.674;2023-04-03T05:47:31;13.50;;;7.03;;
64686;SDS011;51113;53.646;-113.674;2023-04-03T05:50:00;12.77;;;6.65;;
64686;SDS011;51113;53.646;-113.674;2023-04-03T05:52:38;12.32;;;6.20;;
64686;SDS011;51113;53.646;-113.674;2023-04-03T05:55:08;16.55;;;7.35;;
64686;SDS011;51113;53.646;-113.674;2023-04-03T05:57:37;19.52;;;8.05;;
64686;SDS011;51113;53.646;-113.674;2023-04-03T06:00:07;12.90;;;7.05;;
64686;SDS011;51113;53.646;-113.674;2023-04-03T06:02:40;14.45;;;7.18;;
64686;SDS011;51113;53.646;-113.674;2023-04-03T06:05:10;13.55;;;7.50;;
64686;SDS011;51113;53.646;-113.674;2023-04-03T06:07:39;16.33;;;7.90;;
64686;SDS011;51113;53.646;-113.674;2023-04-03T06:10:10;13.30;;;7.45;;
64686;SDS011;51113;53.646;-113.674;2023-04-03T06:12:40;12.20;;;7.15;;
64686;SDS011;51113;53.646;-113.674;2023-04-03T06:15:09;12.70;;;6.65;;
64686;SDS011;51113;53.646;-113.674;2023-04-03T06:17:39;14.98;;;7.18;;
64686;SDS011;51113;53.646;-113.674;2023-04-03T06:20:08;14.63;;;7.40;;
64686;SDS011;51113;53.646;-113.674;2023-04-03T06:22:38;13.55;;;7.60;;
64686;SDS011;51113;53.646;-113.674;2023-04-03T06:25:07;14.25;;;7.28;;
64686;SDS011;51113;53.646;-113.674;2023-04-03T06:27:37;14.02;;;7.93;;
64686;SDS011;51113;53.646;-113.674;2023-04-03T06:30:06;19.92;;;8.68;;
64686;SDS011;51113;53.646;-113.674;2023-04-03T06:32:35;16.45;;;7.97;;
64686;SDS011;51113;53.646;-113.674;2023-04-03T06:35:04;11.98;;;6.10;;
64686;SDS011;51113;53.646;-113.674;2023-04-03T06:37:33;12.68;;;7.22;;
64686;SDS011;51113;53.646;-113.674;2023-04-03T06:40:03;14.18;;;7.82;;
64686;SDS011;51113;53.646;-113.674;2023-04-03T06:42:32;15.57;;;7.35;;
64686;SDS011;51113;53.646;-113.674;2023-04-03T06:45:00;13.63;;;7.38;;
64686;SDS011;51113;53.646;-113.674;2023-04-03T06:47:29;14.10;;;7.68;;
64686;SDS011;51113;53.646;-113.674;2023-04-03T06:49:58;12.77;;;7.85;;
64686;SDS011;51113;53.646;-113.674;2023-04-03T06:52:26;13.70;;;7.35;;
64686;SDS011;51113;53.646;-113.674;2023-04-03T06:54:55;12.73;;;7.35;;
64686;SDS011;51113;53.646;-113.674;2023-04-03T06:57:27;13.68;;;7.13;;
64686;SDS011;51113;53.646;-113.674;2023-04-03T06:59:55;14.73;;;7.75;;
64686;SDS011;51113;53.646;-113.674;2023-04-03T07:02:24;12.27;;;6.72;;
64686;SDS011;51113;53.646;-113.674;2023-04-03T07:04:54;11.18;;;6.57;;
64686;SDS011;51113;53.646;-113.674;2023-04-03T07:07:22;11.63;;;7.30;;
64686;SDS011;51113;53.646;-113.674;2023-04-03T07:09:51;16.02;;;6.68;;
64686;SDS011;51113;53.646;-113.674;2023-04-03T07:12:20;10.38;;;6.20;;
64686;SDS011;51113;53.646;-113.674;2023-04-03T07:14:49;12.05;;;5.88;;
64686;SDS011;51113;53.646;-113.674;2023-04-03T07:17:17;11.48;;;6.13;;
64686;SDS011;51113;53.646;-113.674;2023-04-03T07:19:46;12.93;;;6.07;;
64686;SDS011;51113;53.646;-113.674;2023-04-03T07:22:15;13.10;;;6.60;;
64686;SDS011;51113;53.646;-113.674;2023-04-03T07:24:43;10.35;;;6.60;;
64686;SDS011;51113;53.646;-113.674;2023-04-03T07:27:13;11.82;;;6.63;;
64686;SDS011;51113;53.646;-113.674;2023-04-03T07:29:41;11.77;;;6.95;;
64686;SDS011;51113;53.646;-113.674;2023-04-03T07:32:10;12.55;;;6.55;;
64686;SDS011;51113;53.646;-113.674;2023-04-03T07:34:39;15.40;;;8.25;;
64686;SDS011;51113;53.646;-113.674;2023-04-03T07:37:08;11.95;;;6.85;;
64686;SDS011;51113;53.646;-113.674;2023-04-03T07:39:36;12.43;;;7.25;;
64686;SDS011;51113;53.646;-113.674;2023-04-03T07:42:05;16.02;;;7.93;;
64686;SDS011;51113;53.646;-113.674;2023-04-03T07:44:34;15.82;;;7.68;;
64686;SDS011;51113;53.646;-113.674;2023-04-03T07:47:03;16.98;;;7.32;;
64686;SDS011;51113;53.646;-113.674;2023-04-03T07:49:31;15.15;;;7.70;;
64686;SDS011;51113;53.646;-113.674;2023-04-03T07:52:00;11.70;;;7.07;;
64686;SDS011;51113;53.646;-113.674;2023-04-03T07:54:29;16.98;;;7.68;;
64686;SDS011;51113;53.646;-113.674;2023-04-03T07:56:58;11.77;;;6.47;;
64686;SDS011;51113;53.646;-113.674;2023-04-03T07:59:26;9.95;;;6.22;;
64686;SDS011;51113;53.646;-113.674;2023-04-03T08:01:55;11.07;;;6.07;;
64686;SDS011;51113;53.646;-113.674;2023-04-03T08:04:24;12.10;;;6.00;;
64686;SDS011;51113;53.646;-113.674;2023-04-03T08:06:54;19.30;;;5.70;;
64686;SDS011;51113;53.646;-113.674;2023-04-03T08:09:22;12.63;;;6.10;;
64686;SDS011;51113;53.646;-113.674;2023-04-03T08:11:51;15.38;;;6.40;;
64686;SDS011;51113;53.646;-113.674;2023-04-03T08:14:21;11.57;;;6.43;;
64686;SDS011;51113;53.646;-113.674;2023-04-03T08:16:49;10.38;;;5.93;;
64686;SDS011;51113;53.646;-113.674;2023-04-03T08:19:18;8.88;;;4.80;;
64686;SDS011;51113;53.646;-113.674;2023-04-03T08:21:55;9.82;;;5.57;;
64686;SDS011;51113;53.646;-113.674;2023-04-03T08:24:26;7.57;;;5.20;;
64686;SDS011;51113;53.646;-113.674;2023-04-03T08:26:54;10.25;;;5.80;;
64686;SDS011;51113;53.646;-113.674;2023-04-03T08:29:23;7.78;;;4.82;;
64686;SDS011;51113;53.646;-113.674;2023-04-03T08:31:53;10.65;;;5.60;;
64686;SDS011;51113;53.646;-113.674;2023-04-03T08:34:22;10.75;;;5.78;;
64686;SDS011;51113;53.646;-113.674;2023-04-03T08:36:51;8.43;;;5.18;;
64686;SDS011;51113;53.646;-113.674;2023-04-03T08:39:20;7.40;;;4.50;;
64686;SDS011;51113;53.646;-113.674;2023-04-03T08:41:48;9.68;;;4.88;;
64686;SDS011;51113;53.646;-113.674;2023-04-03T08:47:24;7.40;;;4.65;;
64686;SDS011;51113;53.646;-113.674;2023-04-03T08:50:04;7.95;;;4.65;;
64686;SDS011;51113;53.646;-113.674;2023-04-03T08:52:38;7.15;;;4.32;;
64686;SDS011;51113;53.646;-113.674;2023-04-03T08:55:37;7.30;;;4.35;;
64686;SDS011;51113;53.646;-113.674;2023-04-03T08:58:11;6.13;;;3.78;;
64686;SDS011;51113;53.646;-113.674;2023-04-03T09:00:45;7.78;;;4.78;;
64686;SDS011;51113;53.646;-113.674;2023-04-03T09:03:18;7.65;;;4.72;;
64686;SDS011;51113;53.646;-113.674;2023-04-03T09:05:53;7.10;;;4.65;;
64686;SDS011;51113;53.646;-113.674;2023-04-03T09:08:40;8.10;;;4.78;;
64686;SDS011;51113;53.646;-113.674;2023-04-03T09:22:24;6.70;;;4.45;;
64686;SDS011;51113;53.646;-113.674;2023-04-03T09:27:46;6.70;;;3.60;;
64686;SDS011;51113;53.646;-113.674;2023-04-03T09:30:16;6.55;;;3.80;;
64686;SDS011;51113;53.646;-113.674;2023-04-03T09:32:47;7.80;;;4.05;;
64686;SDS011;51113;53.646;-113.674;2023-04-03T09:35:25;9.02;;;3.92;;
64686;SDS011;51113;53.646;-113.674;2023-04-03T09:40:42;7.22;;;4.57;;
64686;SDS011;51113;53.646;-113.674;2023-04-03T09:45:51;6.53;;;4.00;;
64686;SDS011;51113;53.646;-113.674;2023-04-03T09:48:21;6.78;;;3.90;;
64686;SDS011;51113;53.646;-113.674;2023-04-03T09:50:55;7.45;;;4.28;;
64686;SDS011;51113;53.646;-113.674;2023-04-03T09:53:31;7.17;;;3.73;;
64686;SDS011;51113;53.646;-113.674;2023-04-03T09:58:51;5.40;;;3.60;;
64686;SDS011;51113;53.646;-113.674;2023-04-03T10:01:36;6.13;;;3.80;;
64686;SDS011;51113;53.646;-113.674;2023-04-03T10:04:13;6.53;;;3.92;;
64686;SDS011;51113;53.646;-113.674;2023-04-03T10:06:47;6.60;;;3.65;;
64686;SDS011;51113;53.646;-113.674;2023-04-03T10:12:06;8.55;;;4.05;;
64686;SDS011;51113;53.646;-113.674;2023-04-03T10:17:46;7.15;;;3.90;;
64686;SDS011;51113;53.646;-113.674;2023-04-03T10:23:02;7.65;;;3.83;;
64686;SDS011;51113;53.646;-113.674;2023-04-03T10:30:57;6.72;;;3.75;;
64686;SDS011;51113;53.646;-113.674;2023-04-03T10:39:23;6.03;;;3.42;;
64686;SDS011;51113;53.646;-113.674;2023-04-03T10:58:44;5.90;;;3.20;;
64686;SDS011;51113;53.646;-113.674;2023-04-03T11:01:19;5.82;;;3.22;;
64686;SDS011;51113;53.646;-113.674;2023-04-03T11:04:00;4.72;;;2.83;;
64686;SDS011;51113;53.646;-113.674;2023-04-03T11:06:32;4.70;;;3.42;;
64686;SDS011;51113;53.646;-113.674;2023-04-03T11:11:56;5.10;;;3.15;;
64686;SDS011;51113;53.646;-113.674;2023-04-03T11:14:31;5.32;;;3.42;;
64686;SDS011;51113;53.646;-113.674;2023-04-03T11:17:10;6.32;;;3.45;;
64686;SDS011;51113;53.646;-113.674;2023-04-03T11:19:49;6.22;;;3.17;;
64686;SDS011;51113;53.646;-113.674;2023-04-03T11:25:14;4.90;;;3.20;;
64686;SDS011;51113;53.646;-113.674;2023-04-03T11:27:54;5.38;;;3.35;;
64686;SDS011;51113;53.646;-113.674;2023-04-03T11:30:27;6.70;;;3.13;;
64686;SDS011;51113;53.646;-113.674;2023-04-03T11:35:33;7.28;;;3.03;;
64686;SDS011;51113;53.646;-113.674;2023-04-03T11:38:04;6.10;;;3.08;;
64686;SDS011;51113;53.646;-113.674;2023-04-03T11:40:34;4.55;;;2.92;;
64686;SDS011;51113;53.646;-113.674;2023-04-03T11:43:05;5.22;;;2.72;;
64686;SDS011;51113;53.646;-113.674;2023-04-03T11:45:55;5.93;;;3.25;;
64686;SDS011;51113;53.646;-113.674;2023-04-03T11:50:56;6.85;;;3.60;;
64686;SDS011;51113;53.646;-113.674;2023-04-03T11:53:35;5.80;;;3.20;;
64686;SDS011;51113;53.646;-113.674;2023-04-03T12:04:26;5.20;;;2.95;;
64686;SDS011;51113;53.646;-113.674;2023-04-03T12:07:00;8.75;;;3.42;;
64686;SDS011;51113;53.646;-113.674;2023-04-03T12:15:21;8.52;;;2.90;;
64686;SDS011;51113;53.646;-113.674;2023-04-03T12:17:51;7.32;;;3.30;;
64686;SDS011;51113;53.646;-113.674;2023-04-03T12:23:31;5.00;;;3.00;;
64686;SDS011;51113;53.646;-113.674;2023-04-03T12:26:18;6.20;;;3.65;;
64686;SDS011;51113;53.646;-113.674;2023-04-03T12:28:57;4.57;;;3.10;;
64686;SDS011;51113;53.646;-113.674;2023-04-03T12:31:32;5.35;;;3.33;;
64686;SDS011;51113;53.646;-113.674;2023-04-03T12:34:24;4.60;;;3.03;;
64686;SDS011;51113;53.646;-113.674;2023-04-03T12:37:09;5.85;;;3.42;;
64686;SDS011;51113;53.646;-113.674;2023-04-03T12:40:07;5.85;;;3.28;;
64686;SDS011;51113;53.646;-113.674;2023-04-03T12:45:25;4.70;;;3.08;;
64686;SDS011;51113;53.646;-113.674;2023-04-03T12:47:54;8.20;;;3.38;;
64686;SDS011;51113;53.646;-113.674;2023-04-03T12:50:25;6.32;;;3.25;;
64686;SDS011;51113;53.646;-113.674;2023-04-03T12:55:33;11.13;;;3.40;;
64686;SDS011;51113;53.646;-113.674;2023-04-03T13:01:03;7.15;;;3.70;;
64686;SDS011;51113;53.646;-113.674;2023-04-03T13:03:41;6.90;;;3.30;;
64686;SDS011;51113;53.646;-113.674;2023-04-03T13:06:22;5.63;;;3.40;;
64686;SDS011;51113;53.646;-113.674;2023-04-03T13:08:54;4.50;;;3.15;;
64686;SDS011;51113;53.646;-113.674;2023-04-03T13:11:30;6.57;;;3.38;;
64686;SDS011;51113;53.646;-113.674;2023-04-03T13:14:15;6.03;;;3.20;;
64686;SDS011;51113;53.646;-113.674;2023-04-03T13:17:00;4.47;;;3.05;;
64686;SDS011;51113;53.646;-113.674;2023-04-03T13:19:49;5.15;;;2.88;;
64686;SDS011;51113;53.646;-113.674;2023-04-03T13:24:54;6.95;;;3.40;;
64686;SDS011;51113;53.646;-113.674;2023-04-03T13:27:22;5.65;;;3.13;;
64686;SDS011;51113;53.646;-113.674;2023-04-03T13:29:53;4.10;;;2.63;;
64686;SDS011;51113;53.646;-113.674;2023-04-03T13:32:23;7.13;;;2.85;;
64686;SDS011;51113;53.646;-113.674;2023-04-03T13:34:53;4.90;;;3.00;;
64686;SDS011;51113;53.646;-113.674;2023-04-03T13:37:29;4.35;;;2.60;;
64686;SDS011;51113;53.646;-113.674;2023-04-03T13:42:35;4.22;;;2.80;;
64686;SDS011;51113;53.646;-113.674;2023-04-03T13:45:08;5.35;;;2.97;;
64686;SDS011;51113;53.646;-113.674;2023-04-03T13:47:40;4.23;;;2.77;;
64686;SDS011;51113;53.646;-113.674;2023-04-03T13:52:49;6.05;;;3.28;;
64686;SDS011;51113;53.646;-113.674;2023-04-03T13:55:23;5.00;;;3.10;;
64686;SDS011;51113;53.646;-113.674;2023-04-03T14:00:33;5.28;;;3.10;;
64686;SDS011;51113;53.646;-113.674;2023-04-03T14:03:24;5.88;;;3.17;;
64686;SDS011;51113;53.646;-113.674;2023-04-03T14:05:56;4.47;;;3.13;;
64686;SDS011;51113;53.646;-113.674;2023-04-03T14:08:25;5.60;;;3.45;;
64686;SDS011;51113;53.646;-113.674;2023-04-03T14:11:28;5.18;;;3.00;;
64686;SDS011;51113;53.646;-113.674;2023-04-03T14:14:02;5.15;;;2.88;;
64686;SDS011;51113;53.646;-113.674;2023-04-03T14:16:39;6.50;;;3.25;;
64686;SDS011;51113;53.646;-113.674;2023-04-03T14:19:20;4.43;;;2.80;;
64686;SDS011;51113;53.646;-113.674;2023-04-03T14:21:54;4.95;;;2.97;;
64686;SDS011;51113;53.646;-113.674;2023-04-03T14:24:24;5.10;;;3.28;;
64686;SDS011;51113;53.646;-113.674;2023-04-03T14:26:53;4.60;;;3.03;;
64686;SDS011;51113;53.646;-113.674;2023-04-03T14:29:23;4.53;;;2.88;;
64686;SDS011;51113;53.646;-113.674;2023-04-03T14:31:52;4.05;;;2.85;;
64686;SDS011;51113;53.646;-113.674;2023-04-03T14:34:37;4.75;;;2.60;;
64686;SDS011;51113;53.646;-113.674;2023-04-03T14:37:09;5.00;;;3.10;;
64686;SDS011;51113;53.646;-113.674;2023-04-03T14:39:42;4.97;;;3.20;;
64686;SDS011;51113;53.646;-113.674;2023-04-03T14:42:34;4.97;;;3.13;;
64686;SDS011;51113;53.646;-113.674;2023-04-03T14:45:05;5.20;;;2.80;;
64686;SDS011;51113;53.646;-113.674;2023-04-03T14:47:41;5.15;;;3.20;;
64686;SDS011;51113;53.646;-113.674;2023-04-03T14:50:17;6.68;;;3.40;;
64686;SDS011;51113;53.646;-113.674;2023-04-03T14:52:51;5.38;;;3.33;;
64686;SDS011;51113;53.646;-113.674;2023-04-03T14:55:22;5.50;;;3.17;;
64686;SDS011;51113;53.646;-113.674;2023-04-03T14:57:52;5.13;;;3.33;;
64686;SDS011;51113;53.646;-113.674;2023-04-03T15:00:21;4.90;;;2.95;;
64686;SDS011;51113;53.646;-113.674;2023-04-03T15:02:50;6.22;;;3.30;;
64686;SDS011;51113;53.646;-113.674;2023-04-03T15:05:19;6.15;;;3.42;;
64686;SDS011;51113;53.646;-113.674;2023-04-03T15:07:57;6.75;;;3.47;;
64686;SDS011;51113;53.646;-113.674;2023-04-03T15:10:29;7.60;;;3.33;;
64686;SDS011;51113;53.646;-113.674;2023-04-03T15:12:58;5.07;;;2.97;;
64686;SDS011;51113;53.646;-113.674;2023-04-03T15:15:28;3.97;;;2.72;;
64686;SDS011;51113;53.646;-113.674;2023-04-03T15:17:57;5.75;;;3.60;;
64686;SDS011;51113;53.646;-113.674;2023-04-03T15:20:27;5.68;;;3.50;;
64686;SDS011;51113;53.646;-113.674;2023-04-03T15:22:58;5.30;;;3.13;;
64686;SDS011;51113;53.646;-113.674;2023-04-03T15:25:31;4.82;;;3.17;;
64686;SDS011;51113;53.646;-113.674;2023-04-03T15:28:00;6.18;;;3.53;;
64686;SDS011;51113;53.646;-113.674;2023-04-03T15:30:29;8.48;;;3.30;;
64686;SDS011;51113;53.646;-113.674;2023-04-03T15:32:57;7.75;;;3.65;;
64686;SDS011;51113;53.646;-113.674;2023-04-03T15:35:26;11.85;;;3.50;;
64686;SDS011;51113;53.646;-113.674;2023-04-03T15:37:55;4.35;;;2.92;;
64686;SDS011;51113;53.646;-113.674;2023-04-03T15:40:24;10.60;;;4.68;;
64686;SDS011;51113;53.646;-113.674;2023-04-03T15:42:53;6.03;;;3.53;;
64686;SDS011;51113;53.646;-113.674;2023-04-03T15:45:22;5.60;;;3.70;;
64686;SDS011;51113;53.646;-113.674;2023-04-03T15:47:51;7.32;;;4.25;;
64686;SDS011;51113;53.646;-113.674;2023-04-03T15:50:19;9.70;;;3.88;;
64686;SDS011;51113;53.646;-113.674;2023-04-03T15:52:51;6.35;;;3.15;;
64686;SDS011;51113;53.646;-113.674;2023-04-03T15:55:22;5.18;;;3.47;;
64686;SDS011;51113;53.646;-113.674;2023-04-03T15:57:52;6.70;;;3.10;;
64686;SDS011;51113;53.646;-113.674;2023-04-03T16:00:21;8.15;;;3.40;;
64686;SDS011;51113;53.646;-113.674;2023-04-03T16:02:58;4.65;;;2.92;;
64686;SDS011;51113;53.646;-113.674;2023-04-03T16:05:29;4.00;;;2.50;;
64686;SDS011;51113;53.646;-113.674;2023-04-03T16:07:59;4.20;;;2.60;;
64686;SDS011;51113;53.646;-113.674;2023-04-03T16:10:29;3.30;;;2.30;;
64686;SDS011;51113;53.646;-113.674;2023-04-03T16:12:58;3.58;;;2.40;;
64686;SDS011;51113;53.646;-113.674;2023-04-03T16:15:26;3.75;;;2.13;;
64686;SDS011;51113;53.646;-113.674;2023-04-03T16:17:55;4.43;;;1.90;;
64686;SDS011;51113;53.646;-113.674;2023-04-03T16:20:24;3.60;;;2.30;;